Time;durP1;ratioP1;P1;durP2;ratioP2;P2;SDS_P1;SDS_P2;PMS_P1;PMS_P2;Temp;Humidity;BMP_temperature;BMP_pressure;BME280_temperature;BME280_humidity;BME280_pressure;Samples;Min_cycle;Max_cycle;Signal;HPM_P1;HPM_P2
2023/02/25 03:00:55;;;;;;;16.07;14.53;;;4.90;99.90;;;;;;5863091;23;20672;-80
2023/02/25 03:03:34;;;;;;;15.37;14.00;;;4.90;99.90;;;;;;4974879;28;20224;-79
2023/02/25 03:06:03;;;;;;;16.13;14.20;;;4.90;99.90;;;;;;4973858;28;20198;-80
2023/02/25 03:08:33;;;;;;;14.87;13.57;;;4.90;99.90;;;;;;4976799;28;20278;-80
2023/02/25 03:11:04;;;;;;;16.87;14.23;;;4.90;99.90;;;;;;4975272;28;20222;-79
2023/02/25 03:13:31;;;;;;;15.23;13.93;;;5.00;99.90;;;;;;4975350;28;20666;-80
2023/02/25 03:16:00;;;;;;;16.53;14.90;;;5.00;99.90;;;;;;4970090;28;20271;-78
2023/02/25 03:18:33;;;;;;;16.73;15.23;;;4.90;99.90;;;;;;4976824;28;20215;-78
2023/02/25 03:21:03;;;;;;;16.13;14.57;;;4.90;99.90;;;;;;4977017;28;20227;-79
2023/02/25 03:23:33;;;;;;;16.67;14.93;;;4.90;99.90;;;;;;4978095;28;20720;-80
2023/02/25 03:26:11;;;;;;;15.57;14.17;;;4.80;99.90;;;;;;4978305;28;20661;-79
2023/02/25 03:28:41;;;;;;;16.57;15.07;;;4.90;99.90;;;;;;4971898;28;20198;-79
2023/02/25 03:31:14;;;;;;;16.13;14.47;;;4.80;99.90;;;;;;4978608;28;20230;-79
2023/02/25 03:33:46;;;;;;;16.13;14.63;;;4.80;99.90;;;;;;4979629;28;20258;-80
2023/02/25 03:36:19;;;;;;;15.63;14.07;;;4.80;99.90;;;;;;4973556;28;20225;-80
2023/02/25 03:38:54;;;;;;;16.03;14.53;;;4.80;99.90;;;;;;4979497;28;20206;-80
2023/02/25 03:41:25;;;;;;;15.93;14.33;;;4.80;99.90;;;;;;4981347;28;20636;-79
2023/02/25 03:43:55;;;;;;;16.00;14.50;;;4.80;99.90;;;;;;4979378;28;20206;-79
2023/02/25 03:46:26;;;;;;;15.87;14.10;;;4.80;99.90;;;;;;4978264;28;20206;-79
2023/02/25 03:48:54;;;;;;;15.10;13.80;;;4.70;99.90;;;;;;4978538;28;20229;-79
2023/02/25 03:51:27;;;;;;;14.10;12.90;;;4.60;99.90;;;;;;4980194;28;20217;-79
2023/02/25 03:53:54;;;;;;;14.00;12.70;;;4.60;99.90;;;;;;4977389;28;20411;-79
2023/02/25 03:56:26;;;;;;;14.03;12.80;;;4.50;99.90;;;;;;4973347;28;20571;-80
2023/02/25 03:58:53;;;;;;;14.40;12.60;;;4.50;99.90;;;;;;4976583;28;20201;-79
2023/02/25 04:01:26;;;;;;;13.80;12.60;;;4.50;99.90;;;;;;4975594;28;20233;-78
2023/02/25 04:03:53;;;;;;;14.57;13.27;;;4.50;99.90;;;;;;4976872;28;20221;-78
2023/02/25 04:06:22;;;;;;;14.10;12.90;;;4.60;99.90;;;;;;4977051;28;20205;-79
2023/02/25 04:08:50;;;;;;;15.13;13.73;;;4.60;99.90;;;;;;4976248;28;20298;-77
2023/02/25 04:11:17;;;;;;;14.43;13.10;;;4.50;99.90;;;;;;4976685;28;20657;-78
2023/02/25 04:13:45;;;;;;;14.67;13.47;;;4.50;99.90;;;;;;4974762;28;20298;-77
2023/02/25 04:16:12;;;;;;;15.13;13.83;;;4.50;99.90;;;;;;4980279;28;20237;-80
2023/02/25 04:18:41;;;;;;;16.00;14.37;;;4.50;99.90;;;;;;4970091;28;20206;-79
2023/02/25 04:21:09;;;;;;;16.27;14.07;;;4.50;99.90;;;;;;4973140;28;20226;-81
2023/02/25 04:23:36;;;;;;;15.67;13.63;;;4.50;99.90;;;;;;4979922;28;20213;-79
2023/02/25 04:26:03;;;;;;;15.97;14.47;;;4.50;99.90;;;;;;4983541;28;20249;-80
2023/02/25 04:28:30;;;;;;;15.33;13.73;;;4.50;99.90;;;;;;4979468;28;20208;-80
2023/02/25 04:30:57;;;;;;;15.03;13.73;;;4.60;99.90;;;;;;4977165;28;20229;-81
2023/02/25 04:33:23;;;;;;;15.77;14.23;;;4.60;99.90;;;;;;4982785;28;20225;-79
2023/02/25 04:35:52;;;;;;;14.90;13.60;;;4.60;99.90;;;;;;4979864;28;20206;-80
2023/02/25 04:38:18;;;;;;;14.23;12.90;;;4.50;99.90;;;;;;4977951;28;20201;-79
2023/02/25 04:40:45;;;;;;;14.20;13.00;;;4.40;99.90;;;;;;4979813;28;20217;-83
2023/02/25 04:43:12;;;;;;;13.53;12.43;;;4.30;99.90;;;;;;4979738;28;20225;-79
2023/02/25 04:45:39;;;;;;;14.30;13.20;;;4.20;99.90;;;;;;4982303;28;20253;-78
2023/02/25 04:48:06;;;;;;;14.63;13.33;;;4.10;99.90;;;;;;4978776;28;20261;-78
2023/02/25 04:50:33;;;;;;;13.50;12.50;;;4.10;99.90;;;;;;4980912;28;20229;-80
2023/02/25 04:53:02;;;;;;;14.60;13.40;;;4.00;99.90;;;;;;4982170;28;20229;-78
2023/02/25 04:55:29;;;;;;;14.13;12.87;;;3.90;99.90;;;;;;4978843;28;20205;-81
2023/02/25 04:57:56;;;;;;;13.03;11.97;;;3.90;99.90;;;;;;4985029;28;20197;-78
2023/02/25 05:00:24;;;;;;;13.53;12.37;;;3.70;99.90;;;;;;4984837;28;20258;-79
2023/02/25 05:02:51;;;;;;;13.57;12.37;;;3.70;99.90;;;;;;4985711;28;20619;-79
2023/02/25 05:05:18;;;;;;;14.27;12.97;;;3.60;99.90;;;;;;4986303;28;20216;-78
2023/02/25 05:07:45;;;;;;;13.07;12.17;;;3.60;99.90;;;;;;4986826;28;20197;-79
2023/02/25 05:10:14;;;;;;;14.20;12.77;;;3.70;99.90;;;;;;4982476;28;20256;-79
2023/02/25 05:12:42;;;;;;;14.43;13.23;;;3.70;99.90;;;;;;4981520;28;20221;-79
2023/02/25 05:15:10;;;;;;;14.43;13.20;;;3.70;99.90;;;;;;4979580;28;20228;-80
2023/02/25 05:17:37;;;;;;;15.30;13.87;;;3.80;99.90;;;;;;4981291;28;20190;-78
2023/02/25 05:20:10;;;;;;;12.90;11.90;;;3.70;99.90;;;;;;4983660;28;20284;-79
2023/02/25 05:22:37;;;;;;;13.97;12.73;;;3.70;99.90;;;;;;4984713;28;20241;-79
2023/02/25 05:25:05;;;;;;;13.67;12.50;;;3.70;99.90;;;;;;4983211;28;20237;-79
2023/02/25 05:27:34;;;;;;;13.13;12.03;;;3.70;99.90;;;;;;4981343;28;20206;-79
2023/02/25 05:30:01;;;;;;;12.73;11.73;;;3.70;99.90;;;;;;4979107;28;20205;-79
2023/02/25 05:32:29;;;;;;;12.87;11.83;;;3.60;99.90;;;;;;4980225;28;20225;-79
2023/02/25 05:34:56;;;;;;;11.87;10.97;;;3.50;99.90;;;;;;4980155;28;20675;-79
2023/02/25 05:37:23;;;;;;;12.27;11.17;;;3.50;99.90;;;;;;4977519;28;20266;-79
2023/02/25 05:39:50;;;;;;;12.30;11.20;;;3.50;99.90;;;;;;4979480;28;20209;-79
2023/02/25 05:42:16;;;;;;;12.13;10.90;;;3.50;99.90;;;;;;4977810;28;20226;-79
2023/02/25 05:44:44;;;;;;;12.17;11.17;;;3.50;99.90;;;;;;4977880;28;20244;-79
2023/02/25 05:47:13;;;;;;;11.80;10.87;;;3.50;99.90;;;;;;4979375;28;20206;-79
2023/02/25 05:49:41;;;;;;;11.93;10.90;;;3.50;99.90;;;;;;4977637;28;20729;-79
2023/02/25 05:52:07;;;;;;;11.30;10.17;;;3.50;99.90;;;;;;4977589;28;20646;-79
2023/02/25 05:54:34;;;;;;;11.50;10.70;;;3.50;99.90;;;;;;4979434;28;20209;-79
2023/02/25 05:57:01;;;;;;;11.03;10.23;;;3.50;99.90;;;;;;4977590;28;20750;-79
2023/02/25 05:59:28;;;;;;;10.73;9.93;;;3.50;99.90;;;;;;4975452;28;20740;-80
2023/02/25 06:01:56;;;;;;;12.07;11.03;;;3.50;99.90;;;;;;4971326;28;20662;-80
2023/02/25 06:04:23;;;;;;;11.60;10.80;;;3.50;99.90;;;;;;4966225;28;20206;-83
2023/02/25 06:06:50;;;;;;;11.80;10.60;;;3.60;99.90;;;;;;4969820;28;20683;-83
2023/02/25 06:09:18;;;;;;;11.77;10.57;;;3.60;99.90;;;;;;4973622;28;20205;-84
2023/02/25 06:11:46;;;;;;;11.40;10.40;;;3.70;99.90;;;;;;4968839;28;20254;-85
2023/02/25 06:14:13;;;;;;;11.33;10.40;;;3.70;99.90;;;;;;4974851;28;20202;-82
2023/02/25 06:16:41;;;;;;;11.70;10.70;;;3.80;99.90;;;;;;4979522;28;20669;-81
2023/02/25 06:19:10;;;;;;;10.67;10.00;;;3.80;99.90;;;;;;4973990;28;20210;-79
2023/02/25 06:21:37;;;;;;;12.13;11.10;;;3.80;99.90;;;;;;4974426;28;20228;-86
2023/02/25 06:24:05;;;;;;;11.30;10.40;;;3.70;99.90;;;;;;4975777;28;20272;-83
2023/02/25 06:26:31;;;;;;;11.10;10.30;;;3.70;99.90;;;;;;4975237;28;20197;-85
2023/02/25 06:28:58;;;;;;;11.20;10.40;;;3.70;99.90;;;;;;4972173;28;20201;-79
2023/02/25 06:31:25;;;;;;;11.43;10.27;;;3.60;99.90;;;;;;4979901;28;20222;-80
2023/02/25 06:33:53;;;;;;;11.40;10.40;;;3.60;99.90;;;;;;4976309;28;20202;-80
2023/02/25 06:36:21;;;;;;;11.40;10.60;;;3.60;99.90;;;;;;4977152;28;20696;-80
2023/02/25 06:38:48;;;;;;;11.60;10.90;;;3.60;99.90;;;;;;4968952;28;20581;-79
2023/02/25 06:41:17;;;;;;;11.57;10.67;;;3.60;99.90;;;;;;4977240;28;20218;-79
2023/02/25 06:43:45;;;;;;;11.80;10.80;;;3.60;99.90;;;;;;4976554;28;20703;-80
2023/02/25 06:46:13;;;;;;;11.90;11.00;;;3.70;99.90;;;;;;4977265;28;20213;-80
2023/02/25 06:48:40;;;;;;;12.37;11.37;;;3.70;99.90;;;;;;4976445;28;20206;-80
2023/02/25 06:51:08;;;;;;;11.70;10.90;;;3.70;99.90;;;;;;4976888;28;20218;-80
2023/02/25 06:53:36;;;;;;;12.10;11.20;;;3.70;99.90;;;;;;4977951;28;20277;-80
2023/02/25 06:56:03;;;;;;;11.47;10.67;;;3.80;99.90;;;;;;4977126;28;20209;-81
2023/02/25 06:58:30;;;;;;;11.90;11.03;;;3.80;99.90;;;;;;4977105;28;20221;-81
2023/02/25 07:00:57;;;;;;;11.77;10.97;;;3.90;99.90;;;;;;4975055;28;20238;-81
2023/02/25 07:03:24;;;;;;;11.87;10.93;;;3.90;99.90;;;;;;4987145;28;20202;-81
2023/02/25 07:05:50;;;;;;;11.67;10.77;;;3.90;99.90;;;;;;4975826;28;20218;-81
2023/02/25 07:08:17;;;;;;;11.80;11.00;;;3.90;99.90;;;;;;4973958;28;20657;-82
2023/02/25 07:10:45;;;;;;;12.10;11.20;;;3.80;99.90;;;;;;4975996;28;20790;-85
2023/02/25 07:13:13;;;;;;;12.10;11.10;;;3.90;99.90;;;;;;4971677;28;20206;-82
2023/02/25 07:15:39;;;;;;;11.87;10.73;;;3.90;99.90;;;;;;4965818;28;20258;-82
2023/02/25 07:18:06;;;;;;;12.10;11.17;;;3.90;99.90;;;;;;4977473;28;20241;-81
2023/02/25 07:20:33;;;;;;;11.50;10.70;;;4.00;99.90;;;;;;4974505;28;20202;-83
2023/02/25 07:23:03;;;;;;;11.63;10.67;;;4.10;99.90;;;;;;4977101;28;20198;-80
2023/02/25 07:25:30;;;;;;;10.80;10.10;;;4.10;99.90;;;;;;4970377;28;20221;-83
2023/02/25 07:27:58;;;;;;;11.47;10.57;;;4.20;99.90;;;;;;4976310;28;20221;-84
2023/02/25 07:30:25;;;;;;;11.80;10.80;;;4.20;99.90;;;;;;4976066;28;20200;-82
2023/02/25 07:32:52;;;;;;;11.17;10.27;;;4.20;99.90;;;;;;4977470;28;20253;-84
2023/02/25 07:35:18;;;;;;;11.60;10.70;;;4.30;99.90;;;;;;4977053;28;20245;-84
2023/02/25 07:37:45;;;;;;;11.53;10.73;;;4.30;99.90;;;;;;4976166;28;20271;-83
2023/02/25 07:40:12;;;;;;;11.57;10.77;;;4.40;99.90;;;;;;4975561;28;20724;-82
2023/02/25 07:42:40;;;;;;;11.27;10.47;;;4.50;99.90;;;;;;4975953;28;20232;-79
2023/02/25 07:45:10;;;;;;;11.30;10.40;;;4.50;99.90;;;;;;4969295;28;20312;-83
2023/02/25 07:47:38;;;;;;;11.50;10.70;;;4.50;99.90;;;;;;4973049;28;20200;-82
2023/02/25 07:50:13;;;;;;;11.57;10.47;;;4.50;99.90;;;;;;4978526;28;20256;-84
2023/02/25 07:52:42;;;;;;;11.93;10.77;;;4.60;99.90;;;;;;4976739;28;20242;-83
2023/02/25 07:55:12;;;;;;;11.43;10.53;;;4.60;99.90;;;;;;4975995;28;20201;-82
2023/02/25 07:57:39;;;;;;;12.57;11.37;;;4.70;99.90;;;;;;4976454;28;20206;-81
2023/02/25 08:00:09;;;;;;;12.33;11.17;;;4.80;99.90;;;;;;4969457;28;20688;-82
2023/02/25 08:02:41;;;;;;;12.10;11.00;;;5.00;99.90;;;;;;4971676;28;20607;-82
2023/02/25 08:05:09;;;;;;;12.13;11.13;;;5.10;99.90;;;;;;4972823;28;20214;-80
2023/02/25 08:07:35;;;;;;;12.00;11.20;;;5.20;99.90;;;;;;4974989;28;20232;-79
2023/02/25 08:10:02;;;;;;;12.00;10.90;;;5.30;99.90;;;;;;4976814;28;20210;-78
2023/02/25 08:12:29;;;;;;;11.07;10.30;;;5.30;99.90;;;;;;4976066;28;20278;-80
2023/02/25 08:15:00;;;;;;;12.23;11.10;;;5.30;99.90;;;;;;4974483;28;20207;-79
2023/02/25 08:17:30;;;;;;;11.73;10.83;;;5.20;99.90;;;;;;4971487;28;20227;-78
2023/02/25 08:19:58;;;;;;;11.97;10.97;;;5.30;99.90;;;;;;4975457;28;20716;-80
2023/02/25 08:22:24;;;;;;;12.13;11.23;;;5.90;99.90;;;;;;4975847;28;20230;-80
2023/02/25 08:24:51;;;;;;;11.90;10.93;;;6.60;99.90;;;;;;4970679;28;20229;-80
2023/02/25 08:27:18;;;;;;;12.53;11.60;;;7.20;99.90;;;;;;4974337;28;20208;-80
2023/02/25 08:29:45;;;;;;;11.20;10.40;;;7.80;99.90;;;;;;4974242;28;20274;-83
2023/02/25 08:32:12;;;;;;;10.60;9.80;;;8.50;99.90;;;;;;4968827;28;20712;-81
2023/02/25 08:34:38;;;;;;;10.20;9.33;;;8.50;99.90;;;;;;4975461;28;20617;-81
2023/02/25 08:37:09;;;;;;;9.87;9.07;;;8.20;99.90;;;;;;4977620;28;20211;-81
2023/02/25 08:39:36;;;;;;;9.57;8.83;;;7.80;99.90;;;;;;4975809;28;20198;-80
2023/02/25 08:42:03;;;;;;;9.37;8.67;;;7.50;99.90;;;;;;4972193;28;20232;-81
2023/02/25 08:44:30;;;;;;;9.50;8.70;;;7.30;99.90;;;;;;4977576;28;20209;-81
2023/02/25 08:47:01;;;;;;;9.70;9.03;;;7.10;99.90;;;;;;4977261;28;20295;-81
2023/02/25 08:49:27;;;;;;;10.20;9.27;;;6.80;99.90;;;;;;4976135;28;20209;-81
2023/02/25 08:51:54;;;;;;;9.57;8.93;;;6.80;99.90;;;;;;4976179;28;20642;-80
2023/02/25 08:54:23;;;;;;;9.87;9.10;;;6.80;99.90;;;;;;4975796;28;20226;-80
2023/02/25 08:56:50;;;;;;;9.73;9.03;;;6.60;99.90;;;;;;4972821;28;20248;-84
2023/02/25 08:59:17;;;;;;;10.53;9.63;;;6.60;99.90;;;;;;4974680;28;20217;-82
2023/02/25 09:01:44;;;;;;;9.47;8.77;;;6.50;99.90;;;;;;4977471;28;20241;-82
2023/02/25 09:04:12;;;;;;;9.97;9.17;;;6.50;99.90;;;;;;4967979;28;20696;-81
2023/02/25 09:06:39;;;;;;;9.53;8.63;;;6.40;99.90;;;;;;4975743;28;20198;-80
2023/02/25 09:09:06;;;;;;;10.60;9.87;;;6.30;99.90;;;;;;4971733;28;20638;-80
2023/02/25 09:11:34;;;;;;;9.17;8.30;;;6.30;99.90;;;;;;4974729;28;20225;-77
2023/02/25 09:14:01;;;;;;;8.70;8.20;;;6.20;99.90;;;;;;4966871;28;20229;-79
2023/02/25 09:16:28;;;;;;;9.10;8.40;;;6.20;99.90;;;;;;4973667;28;20616;-80
2023/02/25 09:18:55;;;;;;;9.52;8.73;;;6.20;99.90;;;;;;4976173;28;20458;-81
2023/02/25 09:21:22;;;;;;;9.27;8.57;;;6.10;99.90;;;;;;4973301;28;20932;-79
2023/02/25 09:23:50;;;;;;;9.37;8.60;;;6.10;99.90;;;;;;4980968;28;20204;-81
2023/02/25 09:26:17;;;;;;;9.07;8.43;;;6.00;99.90;;;;;;4977566;28;20256;-79
2023/02/25 09:28:46;;;;;;;8.97;8.27;;;5.80;99.90;;;;;;4985366;28;20203;-79
2023/02/25 09:31:13;;;;;;;10.23;9.23;;;5.70;99.90;;;;;;4968878;28;20213;-83
2023/02/25 09:33:41;;;;;;;9.50;8.90;;;5.50;99.90;;;;;;4980223;28;20232;-80
2023/02/25 09:36:11;;;;;;;10.10;9.30;;;5.40;99.90;;;;;;4976450;28;20291;-81
2023/02/25 09:38:39;;;;;;;10.30;9.00;;;5.40;99.90;;;;;;4976914;28;20201;-80
2023/02/25 09:41:21;;;;;;;9.90;9.03;;;5.50;99.90;;;;;;4976798;28;20235;-80
2023/02/25 09:43:58;;;;;;;9.90;9.00;;;5.50;99.90;;;;;;4978113;28;20266;-79
2023/02/25 09:46:29;;;;;;;10.23;9.23;;;5.70;99.90;;;;;;4980600;28;20220;-81
2023/02/25 09:48:59;;;;;;;10.10;9.27;;;5.80;99.90;;;;;;4983051;28;20213;-80
2023/02/25 09:51:31;;;;;;;10.43;9.67;;;6.00;99.90;;;;;;4979044;28;20228;-79
2023/02/25 09:54:10;;;;;;;9.30;8.70;;;6.10;99.90;;;;;;4979209;28;20235;-80
2023/02/25 09:56:37;;;;;;;9.30;8.57;;;6.30;99.90;;;;;;4974396;28;20211;-80
2023/02/25 09:59:13;;;;;;;10.20;9.30;;;6.40;99.90;;;;;;4980676;28;20201;-81
2023/02/25 10:01:45;;;;;;;10.67;9.90;;;6.60;99.90;;;;;;4977733;28;20232;-80
2023/02/25 10:04:17;;;;;;;9.80;9.10;;;6.80;99.90;;;;;;4979316;28;20202;-80
2023/02/25 10:06:47;;;;;;;9.17;8.30;;;6.90;99.90;;;;;;4979772;28;20227;-79
2023/02/25 10:09:22;;;;;;;9.10;8.40;;;7.00;99.90;;;;;;4979077;28;20198;-80
2023/02/25 10:11:53;;;;;;;8.40;7.80;;;7.10;99.90;;;;;;4976305;28;20227;-83
2023/02/25 10:14:59;;;;;;;8.90;8.30;;;7.00;99.90;;;;;;4974251;28;20260;-82
2023/02/25 10:17:35;;;;;;;9.70;8.90;;;7.00;99.90;;;;;;4976143;28;20668;-84
2023/02/25 10:20:26;;;;;;;9.27;8.47;;;6.80;99.90;;;;;;4971940;28;20263;-83
2023/02/25 10:23:02;;;;;;;9.23;8.50;;;6.70;99.90;;;;;;4975279;28;20205;-82
2023/02/25 10:25:33;;;;;;;9.73;8.70;;;6.60;99.90;;;;;;4973211;28;20217;-85
2023/02/25 10:28:03;;;;;;;9.33;8.30;;;6.80;99.90;;;;;;4972573;28;20202;-76
2023/02/25 10:30:38;;;;;;;8.87;8.27;;;6.90;99.90;;;;;;4973677;28;20202;-84
2023/02/25 10:33:14;;;;;;;9.10;8.40;;;7.20;99.90;;;;;;4977630;28;20200;-81
2023/02/25 10:35:41;;;;;;;8.30;7.80;;;7.50;99.90;;;;;;4973115;28;20734;-82
2023/02/25 10:38:09;;;;;;;9.70;9.07;;;7.90;99.90;;;;;;4976991;28;20664;-84
2023/02/25 10:40:37;;;;;;;9.07;8.40;;;8.10;99.90;;;;;;4978539;28;20198;-82
2023/02/25 10:43:19;;;;;;;8.90;8.27;;;8.10;99.90;;;;;;4978402;28;20202;-82
2023/02/25 10:45:54;;;;;;;8.67;8.07;;;7.80;99.90;;;;;;4978946;28;20273;-80
2023/02/25 10:48:23;;;;;;;9.20;8.40;;;7.60;99.90;;;;;;4979810;28;20671;-83
2023/02/25 10:51:04;;;;;;;8.77;8.27;;;7.30;99.90;;;;;;4979286;28;20253;-84
2023/02/25 10:53:31;;;;;;;9.07;8.30;;;7.10;99.90;;;;;;4980678;28;20202;-84
2023/02/25 10:56:00;;;;;;;8.87;8.13;;;7.00;99.90;;;;;;4980197;28;20256;-80
2023/02/25 10:58:33;;;;;;;9.00;8.20;;;7.00;99.90;;;;;;4982123;28;20584;-83
2023/02/25 11:01:07;;;;;;;8.70;8.10;;;7.00;99.90;;;;;;4978517;28;20241;-85
2023/02/25 11:03:51;;;;;;;8.70;8.10;;;7.00;99.90;;;;;;4978383;28;20210;-84
2023/02/25 11:06:23;;;;;;;7.87;7.43;;;7.00;99.90;;;;;;4978607;28;20233;-84
2023/02/25 11:08:51;;;;;;;8.37;7.73;;;7.00;99.90;;;;;;4979743;28;20683;-82
2023/02/25 11:11:21;;;;;;;8.40;7.80;;;7.00;99.90;;;;;;4980522;28;20233;-83
2023/02/25 11:14:00;;;;;;;8.87;8.37;;;7.20;99.90;;;;;;4982632;28;20206;-85
2023/02/25 11:16:30;;;;;;;8.80;8.20;;;7.20;99.90;;;;;;4980264;28;20201;-83
2023/02/25 11:19:00;;;;;;;8.13;7.53;;;7.30;99.90;;;;;;4979359;28;20269;-84
2023/02/25 11:21:34;;;;;;;8.13;7.23;;;7.40;99.90;;;;;;4982120;28;20276;-83
2023/02/25 11:24:04;;;;;;;7.97;7.47;;;7.20;99.90;;;;;;4973574;28;20621;-85
2023/02/25 11:26:34;;;;;;;7.93;7.43;;;7.20;99.90;;;;;;4978796;28;20233;-82
2023/02/25 11:29:04;;;;;;;8.07;7.43;;;7.10;99.90;;;;;;4979451;28;20586;-80
2023/02/25 11:31:38;;;;;;;8.90;8.20;;;7.00;99.90;;;;;;4977709;28;20291;-82
2023/02/25 11:34:12;;;;;;;7.70;7.20;;;6.90;99.90;;;;;;4978468;28;20198;-79
2023/02/25 11:36:39;;;;;;;8.80;8.20;;;6.70;99.90;;;;;;4977124;28;20206;-83
2023/02/25 11:39:19;;;;;;;9.13;8.47;;;6.80;99.90;;;;;;4981142;28;20205;-83
2023/02/25 11:41:48;;;;;;;9.07;8.27;;;6.80;99.90;;;;;;4979702;28;20279;-85
2023/02/25 11:44:26;;;;;;;8.43;7.83;;;6.90;99.90;;;;;;4978198;28;20210;-85
2023/02/25 11:47:00;;;;;;;8.80;8.20;;;6.80;99.90;;;;;;4979161;28;20240;-85
2023/02/25 11:49:42;;;;;;;8.60;8.03;;;6.80;99.90;;;;;;4977567;28;20206;-85
2023/02/25 11:52:14;;;;;;;8.20;7.50;;;6.80;99.90;;;;;;4976866;28;20576;-79
2023/02/25 11:54:52;;;;;;;8.87;8.17;;;6.80;99.90;;;;;;4975987;28;20201;-82
2023/02/25 11:57:25;;;;;;;8.27;7.77;;;6.90;99.90;;;;;;4981693;28;20880;-78
2023/02/25 12:00:00;;;;;;;8.50;7.90;;;7.10;99.90;;;;;;4981217;28;20512;-79
2023/02/25 12:02:43;;;;;;;8.13;7.50;;;7.20;99.90;;;;;;4984352;28;20225;-81
2023/02/25 12:05:38;;;;;;;8.07;7.57;;;7.30;99.90;;;;;;4982477;28;20711;-79
2023/02/25 12:08:44;;;;;;;8.37;7.87;;;7.40;99.90;;;;;;4984829;28;20238;-78
2023/02/25 12:11:59;;;;;;;8.60;7.90;;;7.50;99.90;;;;;;4920354;29;20274;-78
2023/02/25 12:15:11;;;;;;;8.33;7.73;;;7.40;99.90;;;;;;4972500;28;20206;-78
2023/02/25 12:18:16;;;;;;;7.70;7.30;;;7.30;99.90;;;;;;4944165;28;20337;-81
2023/02/25 12:21:22;;;;;;;8.00;7.50;;;7.20;99.90;;;;;;4976814;28;20230;-81
2023/02/25 12:24:31;;;;;;;8.43;7.73;;;7.10;99.90;;;;;;4980511;28;20208;-81
2023/02/25 12:27:19;;;;;;;8.90;7.63;;;7.30;99.90;;;;;;4977774;28;20213;-80
2023/02/25 12:30:07;;;;;;;8.13;7.43;;;7.40;99.90;;;;;;4981677;28;20220;-80
2023/02/25 12:32:49;;;;;;;8.30;7.70;;;7.40;99.90;;;;;;4980966;28;20241;-79
2023/02/25 12:35:34;;;;;;;7.50;7.00;;;7.50;99.90;;;;;;4980370;28;20201;-79
2023/02/25 12:38:56;;;;;;;8.10;7.50;;;7.50;99.90;;;;;;4981375;28;20205;-80
2023/02/25 12:41:39;;;;;;;7.80;7.30;;;7.30;99.90;;;;;;4980280;28;20225;-80
2023/02/25 12:44:32;;;;;;;8.20;7.60;;;7.20;99.90;;;;;;4978694;28;20201;-80
2023/02/25 12:47:15;;;;;;;8.90;8.30;;;7.10;99.90;;;;;;4982763;28;20206;-84
2023/02/25 12:50:06;;;;;;;8.00;7.50;;;7.00;99.90;;;;;;4977915;28;20225;-77
2023/02/25 12:52:46;;;;;;;8.47;7.87;;;7.00;99.90;;;;;;4981707;28;20249;-81
2023/02/25 12:55:41;;;;;;;8.60;8.00;;;7.00;99.90;;;;;;4979933;28;20229;-80
2023/02/25 12:58:26;;;;;;;8.37;7.73;;;6.90;99.90;;;;;;4978215;28;20214;-79
2023/02/25 13:01:13;;;;;;;8.30;7.70;;;6.80;99.90;;;;;;4982722;28;20288;-80
2023/02/25 13:04:03;;;;;;;8.37;7.73;;;6.70;99.90;;;;;;4979302;28;20688;-82
2023/02/25 13:06:55;;;;;;;8.00;7.50;;;6.80;99.90;;;;;;4974039;28;20225;-80
2023/02/25 13:09:37;;;;;;;7.90;7.40;;;6.70;99.90;;;;;;4974679;28;20210;-82
2023/02/25 13:12:28;;;;;;;8.40;7.80;;;6.70;99.90;;;;;;4981588;28;20229;-79
2023/02/25 13:15:08;;;;;;;8.50;7.83;;;6.80;99.90;;;;;;4982031;28;20205;-80
2023/02/25 13:17:55;;;;;;;8.17;7.67;;;6.90;99.90;;;;;;4983869;28;20251;-80
2023/02/25 13:20:53;;;;;;;9.07;8.37;;;6.90;99.90;;;;;;4977425;28;20232;-79
2023/02/25 13:23:52;;;;;;;8.87;8.17;;;7.10;99.90;;;;;;4980709;28;20278;-79
2023/02/25 13:26:45;;;;;;;8.70;8.10;;;7.20;99.90;;;;;;4983314;28;20762;-81
2023/02/25 13:29:26;;;;;;;5.70;5.30;;;7.30;99.90;;;;;;4980470;28;20445;-80
2023/02/25 13:32:05;;;;;;;8.60;7.87;;;7.40;99.90;;;;;;4979622;28;20225;-81
2023/02/25 13:34:44;;;;;;;8.00;7.50;;;7.60;99.90;;;;;;4977441;28;20205;-81
2023/02/25 13:37:31;;;;;;;8.10;7.50;;;7.60;99.90;;;;;;4979750;28;20212;-81
2023/02/25 13:40:19;;;;;;;8.27;7.67;;;7.60;99.90;;;;;;4981611;28;20205;-79
2023/02/25 13:43:03;;;;;;;8.73;8.03;;;7.50;99.90;;;;;;4981389;28;20234;-81
2023/02/25 13:45:47;;;;;;;8.70;8.10;;;7.60;99.90;;;;;;4979606;28;20356;-80
2023/02/25 13:48:38;;;;;;;9.00;8.30;;;7.60;99.90;;;;;;4980148;28;20538;-80
2023/02/25 13:51:29;;;;;;;9.93;9.13;;;7.60;99.90;;;;;;4969452;28;20306;-79
2023/02/25 13:54:19;;;;;;;11.73;9.60;;;7.60;99.90;;;;;;4977907;28;20201;-79
2023/02/25 13:57:00;;;;;;;9.60;8.80;;;7.40;99.90;;;;;;4972046;28;20240;-85
2023/02/25 13:59:57;;;;;;;9.30;8.53;;;7.40;99.90;;;;;;4974740;28;20201;-82
2023/02/25 14:02:54;;;;;;;10.50;9.33;;;7.30;99.90;;;;;;4975100;28;20264;-79
2023/02/25 14:05:44;;;;;;;11.27;10.07;;;7.10;99.90;;;;;;4975625;28;20209;-86
2023/02/25 14:08:26;;;;;;;10.67;9.77;;;7.00;99.90;;;;;;4981174;28;20210;-79
2023/02/25 14:11:00;;;;;;;10.50;9.50;;;6.80;99.90;;;;;;4979453;28;20649;-78
2023/02/25 14:13:58;;;;;;;10.00;9.10;;;6.70;99.90;;;;;;4977441;28;20207;-79
2023/02/25 14:16:47;;;;;;;9.73;8.93;;;6.50;99.90;;;;;;4985129;28;20190;-80
2023/02/25 14:19:29;;;;;;;8.97;8.17;;;6.30;99.90;;;;;;4980166;28;20268;-79
2023/02/25 14:22:20;;;;;;;9.77;8.77;;;6.20;99.90;;;;;;4999184;28;20228;-80
2023/02/25 14:24:56;;;;;;;10.20;8.80;;;5.90;99.90;;;;;;4980554;28;20202;-81
2023/02/25 14:27:30;;;;;;;9.87;8.97;;;5.80;99.90;;;;;;4981937;28;20240;-79
2023/02/25 14:30:06;;;;;;;10.00;9.23;;;5.70;99.90;;;;;;4981174;28;20200;-80
2023/02/25 14:32:49;;;;;;;10.00;9.13;;;5.70;99.90;;;;;;4972428;28;20219;-80
2023/02/25 14:35:36;;;;;;;9.27;8.53;;;5.70;99.90;;;;;;4980343;28;20205;-80
2023/02/25 14:38:08;;;;;;;9.10;8.40;;;5.70;99.90;;;;;;4980849;28;20203;-82
2023/02/25 14:40:41;;;;;;;8.93;8.23;;;5.70;99.90;;;;;;4986421;28;20203;-80
2023/02/25 14:43:28;;;;;;;9.23;8.47;;;5.70;99.90;;;;;;4982969;28;20207;-81
2023/02/25 14:46:03;;;;;;;9.00;8.27;;;5.70;99.90;;;;;;4978329;28;20226;-80
2023/02/25 14:48:40;;;;;;;9.67;8.90;;;5.80;99.90;;;;;;4984459;28;20264;-81
2023/02/25 14:51:31;;;;;;;9.90;9.00;;;5.70;99.90;;;;;;4984415;28;20218;-79
2023/02/25 14:54:32;;;;;;;9.27;8.50;;;5.80;99.90;;;;;;4983108;28;20203;-79
2023/02/25 14:57:14;;;;;;;8.87;8.17;;;6.00;99.90;;;;;;4930103;28;20264;-79
2023/02/25 15:00:08;;;;;;;8.97;8.17;;;6.10;99.90;;;;;;4982804;28;20231;-82
2023/02/25 15:03:01;;;;;;;8.40;7.70;;;6.10;99.90;;;;;;4983037;28;20566;-81
2023/02/25 15:05:43;;;;;;;8.77;8.17;;;6.10;99.90;;;;;;4984134;28;20542;-81
2023/02/25 15:08:43;;;;;;;8.63;8.00;;;6.00;99.90;;;;;;4982134;28;20221;-80
2023/02/25 15:11:33;;;;;;;8.80;8.10;;;5.90;99.90;;;;;;4983444;28;20690;-80
2023/02/25 15:14:27;;;;;;;9.57;8.60;;;5.90;99.90;;;;;;4977221;28;20625;-79
2023/02/25 15:17:12;;;;;;;8.33;7.83;;;5.80;99.90;;;;;;4980463;28;20282;-80
2023/02/25 15:20:03;;;;;;;8.70;8.10;;;5.90;99.90;;;;;;4984842;28;20204;-80
2023/02/25 15:22:32;;;;;;;8.60;8.10;;;6.00;99.90;;;;;;4980234;28;20245;-81
2023/02/25 15:25:28;;;;;;;8.67;8.00;;;6.20;99.90;;;;;;4983774;28;20208;-79
2023/02/25 15:27:59;;;;;;;8.80;8.00;;;6.40;99.90;;;;;;4970010;28;20612;-85
2023/02/25 15:30:27;;;;;;;8.70;8.10;;;6.50;99.90;;;;;;4981402;28;20213;-80
2023/02/25 15:33:16;;;;;;;9.03;8.33;;;6.50;99.90;;;;;;4983573;28;20208;-79
2023/02/25 15:35:58;;;;;;;8.77;8.10;;;6.50;99.90;;;;;;4983804;28;20235;-83
2023/02/25 15:38:47;;;;;;;8.57;7.97;;;6.40;99.90;;;;;;4984194;28;20196;-80
2023/02/25 15:41:40;;;;;;;9.07;8.27;;;6.30;99.90;;;;;;4965332;28;20231;-82
2023/02/25 15:44:38;;;;;;;9.23;8.50;;;6.20;99.90;;;;;;4964701;28;20252;-82
2023/02/25 15:47:26;;;;;;;9.57;8.50;;;6.10;99.90;;;;;;4944950;28;20748;-82
2023/02/25 15:49:56;;;;;;;9.57;8.77;;;6.10;99.90;;;;;;4976715;28;20263;-81
2023/02/25 15:52:57;;;;;;;8.83;8.17;;;6.10;99.90;;;;;;4978377;28;20216;-82
2023/02/25 15:55:37;;;;;;;8.60;8.00;;;6.00;99.90;;;;;;4954891;28;20198;-82
2023/02/25 15:58:37;;;;;;;9.13;8.43;;;6.00;99.90;;;;;;4975631;28;20279;-81
2023/02/25 16:01:38;;;;;;;9.20;8.50;;;5.90;99.90;;;;;;4979384;28;20240;-79
2023/02/25 16:04:28;;;;;;;9.00;8.30;;;5.90;99.90;;;;;;4990926;28;20208;-82
2023/02/25 16:06:57;;;;;;;9.00;8.20;;;5.90;99.90;;;;;;4982205;28;20279;-80
2023/02/25 16:09:27;;;;;;;8.80;8.07;;;5.90;99.90;;;;;;4983187;28;20204;-79
2023/02/25 16:11:58;;;;;;;8.93;8.20;;;5.80;99.90;;;;;;4983616;28;20246;-80
2023/02/25 16:14:28;;;;;;;9.13;8.40;;;5.80;99.90;;;;;;4983014;28;20227;-79
2023/02/25 16:16:58;;;;;;;9.10;8.50;;;5.80;99.90;;;;;;4980524;28;20204;-78
2023/02/25 16:19:29;;;;;;;9.00;8.20;;;5.80;99.90;;;;;;4981387;28;20198;-80
2023/02/25 16:22:00;;;;;;;9.50;8.60;;;5.70;99.90;;;;;;4982411;28;20283;-80
2023/02/25 16:24:27;;;;;;;8.83;8.33;;;5.70;99.90;;;;;;4982281;28;20201;-80
2023/02/25 16:27:01;;;;;;;9.63;9.03;;;5.70;99.90;;;;;;4980558;28;20283;-80